createdAt,value
2019-02-24T00:02:21.589Z,70.70
2019-02-24T00:05:09.205Z,71.80
2019-02-24T00:07:56.801Z,73.20
2019-02-24T00:10:44.734Z,75.30
2019-02-24T00:13:32.649Z,75.50
2019-02-24T00:16:20.206Z,73.80
2019-02-24T00:19:07.879Z,73.70
2019-02-24T00:21:55.308Z,74.50
2019-02-24T00:24:43.012Z,67.80
2019-02-24T00:27:30.620Z,67.10
2019-02-24T00:30:18.030Z,63.10
2019-02-24T00:33:05.519Z,64.20
2019-02-24T00:35:52.893Z,69.80
2019-02-24T00:38:40.087Z,75.10
2019-02-24T00:41:27.945Z,71.10
2019-02-24T00:44:15.290Z,71.80
2019-02-24T00:47:02.965Z,69.00
2019-02-24T00:49:50.174Z,67.60
2019-02-24T00:52:37.995Z,66.80
2019-02-24T00:55:25.279Z,68.30
2019-02-24T00:58:16.147Z,66.50
2019-02-24T01:01:02.301Z,65.20
2019-02-24T01:03:49.777Z,67.00
2019-02-24T01:06:37.323Z,69.60
2019-02-24T01:09:24.630Z,73.30
2019-02-24T01:12:11.701Z,73.20
2019-02-24T01:14:59.410Z,77.30
2019-02-24T01:17:46.807Z,75.00
2019-02-24T01:20:34.384Z,73.40
2019-02-24T01:23:21.929Z,73.80
2019-02-24T01:26:10.318Z,73.60
2019-02-24T01:28:57.947Z,71.90
2019-02-24T01:31:45.503Z,80.00
2019-02-24T01:34:32.810Z,72.60
2019-02-24T01:37:20.182Z,71.30
2019-02-24T01:40:07.858Z,70.90
2019-02-24T01:42:55.380Z,69.50
2019-02-24T01:45:43.307Z,69.00
2019-02-24T01:48:30.645Z,70.20
2019-02-24T01:51:18.345Z,69.60
2019-02-24T01:54:06.146Z,68.40
2019-02-24T01:56:53.433Z,67.80
2019-02-24T01:59:41.057Z,67.50
2019-02-24T02:02:28.561Z,67.00
2019-02-24T02:05:16.417Z,68.40
2019-02-24T02:08:03.716Z,69.20
2019-02-24T02:10:51.155Z,71.00
2019-02-24T02:13:38.816Z,69.50
2019-02-24T02:16:26.437Z,71.10
2019-02-24T02:19:14.090Z,78.30
2019-02-24T02:22:01.434Z,77.40
2019-02-24T02:24:49.610Z,80.90
2019-02-24T02:27:37.236Z,88.60
2019-02-24T02:30:25.343Z,88.40
2019-02-24T02:33:12.915Z,87.60
2019-02-24T02:36:00.602Z,86.60
2019-02-24T02:38:48.406Z,85.70
2019-02-24T02:41:35.885Z,88.40
2019-02-24T02:44:23.353Z,88.80
2019-02-24T02:47:10.414Z,88.00
2019-02-24T02:49:57.732Z,90.90
2019-02-24T02:52:45.389Z,91.20
2019-02-24T02:55:33.240Z,90.30
2019-02-24T02:58:20.858Z,90.70
2019-02-24T03:01:07.936Z,91.20
2019-02-24T03:03:55.024Z,91.90
2019-02-24T03:07:00.345Z,92.30
2019-02-24T03:09:47.667Z,92.50
2019-02-24T03:12:35.538Z,92.10
2019-02-24T03:15:23.177Z,92.00
2019-02-24T03:18:10.986Z,92.10
2019-02-24T03:20:58.919Z,92.50
2019-02-24T03:23:47.054Z,92.50
2019-02-24T03:26:34.796Z,93.20
2019-02-24T03:29:22.546Z,93.10
2019-02-24T03:32:10.170Z,92.30
2019-02-24T03:34:57.585Z,92.40
2019-02-24T03:37:44.790Z,91.40
2019-02-24T03:40:31.961Z,92.40
2019-02-24T03:43:19.563Z,92.70
2019-02-24T03:46:07.402Z,93.50
2019-02-24T03:48:54.914Z,94.20
2019-02-24T03:51:42.247Z,94.10
2019-02-24T03:54:29.622Z,94.40
2019-02-24T03:57:17.729Z,94.10
2019-02-24T04:00:05.863Z,94.10
2019-02-24T04:02:53.442Z,94.40
2019-02-24T04:05:40.845Z,95.50
2019-02-24T04:08:28.310Z,94.70
2019-02-24T04:11:15.693Z,94.50
2019-02-24T04:14:03.574Z,95.00
2019-02-24T04:16:51.366Z,95.20
2019-02-24T04:19:38.955Z,95.30
2019-02-24T04:22:26.157Z,95.00
2019-02-24T04:25:13.567Z,95.30
2019-02-24T04:28:01.214Z,95.70
2019-02-24T04:30:48.941Z,95.30
2019-02-24T04:33:36.009Z,95.40
2019-02-24T04:36:23.646Z,95.70
2019-02-24T04:39:11.897Z,95.20
2019-02-24T04:41:59.064Z,95.10
2019-02-24T04:44:46.708Z,95.20
2019-02-24T04:47:34.576Z,95.10
2019-02-24T04:50:22.109Z,96.80
2019-02-24T04:53:09.583Z,96.70
2019-02-24T04:55:56.665Z,97.10
2019-02-24T04:58:43.964Z,97.10
2019-02-24T05:01:31.499Z,97.40
2019-02-24T05:04:18.575Z,96.30
2019-02-24T05:07:06.239Z,95.80
2019-02-24T05:09:54.471Z,96.00
2019-02-24T05:12:41.871Z,96.80
2019-02-24T05:15:29.471Z,97.40
2019-02-24T05:18:16.650Z,97.00
2019-02-24T05:21:03.820Z,96.80
2019-02-24T05:23:50.912Z,95.60
2019-02-24T05:26:38.101Z,97.20
2019-02-24T05:29:26.035Z,97.60
2019-02-24T05:32:13.240Z,97.60
2019-02-24T05:35:00.691Z,98.70
2019-02-24T05:37:48.368Z,98.10
2019-02-24T05:40:35.983Z,99.30
2019-02-24T05:43:23.435Z,99.00
2019-02-24T05:46:10.834Z,99.60
2019-02-24T05:48:58.150Z,99.60
2019-02-24T05:51:45.672Z,99.90
2019-02-24T05:54:33.298Z,99.40
2019-02-24T05:57:20.474Z,99.10
2019-02-24T06:00:08.543Z,98.90
2019-02-24T06:02:55.946Z,99.30
2019-02-24T06:05:43.402Z,99.30
2019-02-24T06:08:31.149Z,99.80
2019-02-24T06:11:18.784Z,99.90
2019-02-24T06:14:06.186Z,99.90
2019-02-24T06:16:53.304Z,99.90
2019-02-24T06:19:40.821Z,99.90
2019-02-24T06:22:28.545Z,99.90
2019-02-24T06:25:15.942Z,99.90
2019-02-24T06:28:03.557Z,99.90
2019-02-24T06:30:50.988Z,99.90
2019-02-24T06:33:38.517Z,99.90
2019-02-24T06:36:26.047Z,99.90
2019-02-24T06:39:13.787Z,99.90
2019-02-24T06:42:01.894Z,99.90
2019-02-24T06:44:49.195Z,99.90
2019-02-24T06:47:36.427Z,99.90
2019-02-24T06:50:24.850Z,99.90
2019-02-24T06:53:12.384Z,99.90
2019-02-24T06:55:59.773Z,99.90
2019-02-24T06:58:47.388Z,99.90
2019-02-24T07:01:34.822Z,99.90
2019-02-24T07:04:22.023Z,99.90
2019-02-24T07:07:09.412Z,99.90
2019-02-24T07:09:57.258Z,99.90
2019-02-24T07:12:44.846Z,99.90
2019-02-24T07:15:32.544Z,99.90
2019-02-24T07:18:20.003Z,99.90
2019-02-24T07:21:07.647Z,99.90
2019-02-24T07:23:55.527Z,99.90
2019-02-24T07:26:43.295Z,99.90
2019-02-24T07:29:30.914Z,99.90
2019-02-24T07:32:18.442Z,99.90
2019-02-24T07:35:06.738Z,99.90
2019-02-24T07:37:53.939Z,99.90
2019-02-24T07:40:41.766Z,99.90
2019-02-24T07:43:29.348Z,99.80
2019-02-24T07:46:16.673Z,99.80
2019-02-24T07:49:04.101Z,99.00
2019-02-24T07:51:51.818Z,98.30
2019-02-24T07:54:38.925Z,99.20
2019-02-24T07:57:26.570Z,97.50
2019-02-24T08:00:14.178Z,96.30
2019-02-24T08:03:01.466Z,96.80
2019-02-24T08:05:49.302Z,95.50
2019-02-24T08:08:36.598Z,93.50
2019-02-24T08:11:24.388Z,92.40
2019-02-24T08:14:12.076Z,92.20
2019-02-24T08:16:59.844Z,90.50
2019-02-24T08:19:47.506Z,91.60
2019-02-24T08:22:35.169Z,87.60
2019-02-24T08:25:25.654Z,87.00
2019-02-24T08:28:29.544Z,87.20
2019-02-24T08:31:18.527Z,85.80
2019-02-24T08:34:06.513Z,86.50
2019-02-24T08:36:58.580Z,83.50
2019-02-24T08:39:51.961Z,84.70
2019-02-24T08:42:56.797Z,86.20
2019-02-24T08:45:46.728Z,85.60
2019-02-24T08:48:39.116Z,84.90
2019-02-24T08:51:34.443Z,82.50
2019-02-24T08:54:31.772Z,85.10
2019-02-24T08:57:46.048Z,80.60
2019-02-24T09:00:54.551Z,77.10
2019-02-24T09:03:49.150Z,77.90
2019-02-24T09:06:48.547Z,75.50
2019-02-24T09:09:53.381Z,74.30
2019-02-24T09:12:43.777Z,73.50
2019-02-24T09:15:44.601Z,72.80
2019-02-24T09:18:36.261Z,70.90
2019-02-24T09:21:33.811Z,72.40
2019-02-24T09:24:39.959Z,70.50
2019-02-24T09:27:30.077Z,68.70
2019-02-24T09:30:42.661Z,69.50
2019-02-24T09:33:36.343Z,68.60
2019-02-24T09:36:30.024Z,66.80
2019-02-24T09:39:25.533Z,63.60
2019-02-24T09:42:21.478Z,64.30
2019-02-24T09:45:35.418Z,63.80
2019-02-24T09:48:24.985Z,63.10
2019-02-24T09:51:17.014Z,60.80
2019-02-24T09:54:14.676Z,61.20
2019-02-24T09:57:09.491Z,59.30
2019-02-24T10:00:03.899Z,56.90
2019-02-24T10:02:54.772Z,57.10
2019-02-24T10:05:50.711Z,56.00
2019-02-24T10:08:53.999Z,58.10
2019-02-24T10:11:47.658Z,55.20
2019-02-24T10:14:38.362Z,54.60
2019-02-24T10:17:30.879Z,49.80
2019-02-24T10:20:28.069Z,50.20
2019-02-24T10:23:36.165Z,49.90
2019-02-24T10:26:27.566Z,48.70
2019-02-24T10:29:22.429Z,49.30
2019-02-24T10:32:13.304Z,48.40
2019-02-24T10:35:13.837Z,47.50
2019-02-24T10:38:08.330Z,45.70
2019-02-24T10:40:56.665Z,46.20
2019-02-24T10:43:48.798Z,47.40
2019-02-24T10:46:37.870Z,46.80
2019-02-24T10:49:25.808Z,46.60
2019-02-24T10:52:14.256Z,48.70
2019-02-24T10:58:42.558Z,51.00
2019-02-24T11:01:32.154Z,52.60
2019-02-24T11:04:24.576Z,50.30
2019-02-24T11:07:18.768Z,49.10
2019-02-24T11:10:11.775Z,50.50
2019-02-24T11:13:00.894Z,47.80
2019-02-24T11:15:51.700Z,48.30
2019-02-24T11:18:39.409Z,49.10
2019-02-24T11:21:27.277Z,46.60
2019-02-24T11:24:23.198Z,46.50
2019-02-24T11:28:19.211Z,47.00
2019-02-24T11:30:10.132Z,41.40
2019-02-24T11:33:01.652Z,42.50
2019-02-24T11:35:57.480Z,43.00
2019-02-24T11:38:50.001Z,42.40
2019-02-24T11:41:40.088Z,43.90
2019-02-24T11:44:35.518Z,42.30
2019-02-24T11:47:31.106Z,41.30
2019-02-24T11:50:47.116Z,40.80
2019-02-24T11:53:39.450Z,38.70
2019-02-24T11:56:32.512Z,39.90
2019-02-24T11:59:20.009Z,38.30
2019-02-24T12:02:14.937Z,38.00
2019-02-24T12:05:02.810Z,37.70
2019-02-24T12:07:55.021Z,38.90
2019-02-24T12:10:42.762Z,39.20
2019-02-24T12:13:30.204Z,37.10
2019-02-24T12:16:17.274Z,38.10
2019-02-24T12:19:04.460Z,37.30
2019-02-24T12:21:51.952Z,40.00
2019-02-24T12:24:39.389Z,37.50
2019-02-24T12:27:27.049Z,38.10
2019-02-24T12:30:14.715Z,38.30
2019-02-24T12:33:01.946Z,39.20
2019-02-24T12:35:49.825Z,36.00
2019-02-24T12:38:37.242Z,34.90
2019-02-24T12:41:25.381Z,35.90
2019-02-24T12:44:13.121Z,35.10
2019-02-24T12:47:00.753Z,35.40
2019-02-24T12:49:48.371Z,36.60
2019-02-24T12:52:36.717Z,35.10
2019-02-24T12:55:24.237Z,34.30
2019-02-24T12:58:11.391Z,33.70
2019-02-24T13:00:59.354Z,33.80
2019-02-24T13:03:46.500Z,35.70
2019-02-24T13:06:33.973Z,34.70
2019-02-24T13:09:21.745Z,33.80
2019-02-24T13:12:09.289Z,35.00
2019-02-24T13:14:57.101Z,34.00
2019-02-24T13:17:44.829Z,33.70
2019-02-24T13:20:32.653Z,32.30
2019-02-24T13:23:19.810Z,33.90
2019-02-24T13:26:07.096Z,32.10
2019-02-24T13:28:54.815Z,32.50
2019-02-24T13:31:42.286Z,33.00
2019-02-24T13:34:30.796Z,35.20
2019-02-24T13:37:18.473Z,37.10
2019-02-24T13:40:07.047Z,33.00
2019-02-24T13:42:54.873Z,32.60
2019-02-24T13:45:42.871Z,33.20
2019-02-24T13:48:31.018Z,32.40
2019-02-24T13:51:18.393Z,32.60
2019-02-24T13:54:06.222Z,33.10
2019-02-24T13:56:53.826Z,33.40
2019-02-24T13:59:41.233Z,34.70
2019-02-24T14:02:28.644Z,33.40
2019-02-24T14:05:16.134Z,30.40
2019-02-24T14:08:03.215Z,31.80
2019-02-24T14:10:50.357Z,32.60
2019-02-24T14:13:38.237Z,32.50
2019-02-24T14:16:25.985Z,30.60
2019-02-24T14:19:13.246Z,30.50
2019-02-24T14:22:00.997Z,29.70
2019-02-24T14:24:48.212Z,30.00
2019-02-24T14:27:36.010Z,30.00
2019-02-24T14:30:23.852Z,30.40
2019-02-24T14:33:11.238Z,27.50
2019-02-24T14:35:58.917Z,28.30
2019-02-24T14:38:45.965Z,29.00
2019-02-24T14:41:33.385Z,28.50
2019-02-24T14:44:21.502Z,27.90
2019-02-24T14:47:09.307Z,28.60
2019-02-24T14:49:57.227Z,28.00
2019-02-24T14:52:44.976Z,27.30
2019-02-24T14:55:32.842Z,28.60
2019-02-24T14:58:20.299Z,27.50
2019-02-24T15:01:07.963Z,27.50
2019-02-24T15:03:55.481Z,27.20
2019-02-24T15:06:43.406Z,27.70
2019-02-24T15:09:30.921Z,28.40
2019-02-24T15:12:18.250Z,28.70
2019-02-24T15:15:06.594Z,28.10
2019-02-24T15:17:56.651Z,27.40
2019-02-24T15:20:43.449Z,27.60
2019-02-24T15:23:30.716Z,29.00
2019-02-24T15:26:18.391Z,29.00
2019-02-24T15:29:05.733Z,28.10
2019-02-24T15:31:54.278Z,27.70
2019-02-24T15:34:42.457Z,28.60
2019-02-24T15:37:30.217Z,27.10
2019-02-24T15:40:17.596Z,27.90
2019-02-24T15:43:05.165Z,28.10
2019-02-24T15:45:52.790Z,28.20
2019-02-24T15:48:40.516Z,28.40
2019-02-24T15:51:29.803Z,27.80
2019-02-24T15:54:16.982Z,29.40
2019-02-24T15:57:04.932Z,28.30
2019-02-24T15:59:52.735Z,28.00
2019-02-24T16:02:40.234Z,28.40
2019-02-24T16:05:27.626Z,28.00
2019-02-24T16:08:15.281Z,27.80
2019-02-24T16:11:02.683Z,28.30
2019-02-24T16:13:50.119Z,29.30
2019-02-24T16:16:37.830Z,29.90
2019-02-24T16:19:25.709Z,29.80
2019-02-24T16:22:13.430Z,29.90
2019-02-24T16:25:00.889Z,30.70
2019-02-24T16:27:48.397Z,31.40
2019-02-24T16:30:36.349Z,31.50
2019-02-24T16:33:24.109Z,32.10
2019-02-24T16:36:11.922Z,32.60
2019-02-24T16:38:59.710Z,31.80
2019-02-24T16:41:49.892Z,31.60
2019-02-24T16:44:38.360Z,33.50
2019-02-24T16:47:27.845Z,33.50
2019-02-24T16:50:23.146Z,33.40
2019-02-24T16:53:10.561Z,34.50
2019-02-24T16:55:58.908Z,35.10
2019-02-24T16:58:47.469Z,33.80
2019-02-24T17:01:36.016Z,33.90
2019-02-24T17:04:28.572Z,34.40
2019-02-24T17:07:16.400Z,35.30
2019-02-24T17:10:04.456Z,35.10
2019-02-24T17:12:52.011Z,35.40
2019-02-24T17:15:39.708Z,36.70
2019-02-24T17:18:27.527Z,36.20
2019-02-24T17:21:15.403Z,37.00
2019-02-24T17:24:02.872Z,39.30
2019-02-24T17:26:50.509Z,42.10
2019-02-24T17:29:37.945Z,44.70
2019-02-24T17:32:25.654Z,46.40
2019-02-24T17:35:13.556Z,46.30
2019-02-24T17:38:01.097Z,47.50
2019-02-24T17:40:48.197Z,47.70
2019-02-24T17:43:35.296Z,46.90
2019-02-24T17:46:22.911Z,48.20
2019-02-24T17:49:10.321Z,47.70
2019-02-24T17:51:57.733Z,46.00
2019-02-24T17:54:45.172Z,44.80
2019-02-24T17:57:33.006Z,44.40
2019-02-24T18:00:25.905Z,45.30
2019-02-24T18:03:13.535Z,46.90
2019-02-24T18:06:01.207Z,46.10
2019-02-24T18:08:48.692Z,45.00
2019-02-24T18:11:36.127Z,45.00
2019-02-24T18:14:23.689Z,47.60
2019-02-24T18:17:11.136Z,48.30
2019-02-24T18:19:58.515Z,48.00
2019-02-24T18:22:45.902Z,48.40
2019-02-24T18:25:33.393Z,49.90
2019-02-24T18:28:20.830Z,48.20
2019-02-24T18:31:07.971Z,49.30
2019-02-24T18:33:55.462Z,48.00
2019-02-24T18:36:42.983Z,46.70
2019-02-24T18:39:30.252Z,46.70
2019-02-24T18:42:18.352Z,46.70
2019-02-24T18:45:06.093Z,47.10
2019-02-24T18:47:53.763Z,45.70
2019-02-24T18:50:41.701Z,45.20
2019-02-24T18:53:29.477Z,45.80
2019-02-24T18:56:17.161Z,45.40
2019-02-24T18:59:05.370Z,45.70
2019-02-24T19:01:53.655Z,44.90
2019-02-24T19:04:41.614Z,43.70
2019-02-24T19:07:29.077Z,41.30
2019-02-24T19:10:16.783Z,41.20
2019-02-24T19:13:05.073Z,40.70
2019-02-24T19:15:52.735Z,40.60
2019-02-24T19:18:40.061Z,40.60
2019-02-24T19:21:27.713Z,40.50
2019-02-24T19:24:14.799Z,40.60
2019-02-24T19:27:01.886Z,41.90
2019-02-24T19:29:49.634Z,42.60
2019-02-24T19:32:37.250Z,43.20
2019-02-24T19:35:27.373Z,43.20
2019-02-24T19:38:14.588Z,43.70
2019-02-24T19:41:02.263Z,43.70
2019-02-24T19:43:50.033Z,43.80
2019-02-24T19:46:38.123Z,43.70
2019-02-24T19:49:25.795Z,43.70
2019-02-24T19:52:13.318Z,44.70
2019-02-24T19:55:00.761Z,45.20
2019-02-24T19:57:55.872Z,45.70
2019-02-24T20:00:47.905Z,46.40
2019-02-24T20:03:35.378Z,47.80
2019-02-24T20:06:22.500Z,48.40
2019-02-24T20:09:10.681Z,49.50
2019-02-24T20:11:58.202Z,51.60
2019-02-24T20:14:45.859Z,52.10
2019-02-24T20:17:33.347Z,52.00
2019-02-24T20:20:21.079Z,51.90
2019-02-24T20:23:08.911Z,52.90
2019-02-24T20:25:56.293Z,54.20
2019-02-24T20:28:43.358Z,55.00
2019-02-24T20:31:30.812Z,55.30
2019-02-24T20:34:25.313Z,57.70
2019-02-24T20:37:08.018Z,58.60
2019-02-24T20:39:55.379Z,57.20
2019-02-24T20:42:42.435Z,58.90
2019-02-24T20:45:29.586Z,61.60
2019-02-24T20:48:17.340Z,61.00
2019-02-24T20:51:04.592Z,59.50
2019-02-24T20:53:51.886Z,58.60
2019-02-24T20:56:39.268Z,60.70
2019-02-24T20:59:26.581Z,63.30
2019-02-24T21:02:13.714Z,63.00
2019-02-24T21:05:01.134Z,63.20
2019-02-24T21:07:48.887Z,63.70
2019-02-24T21:10:36.715Z,64.40
2019-02-24T21:13:24.747Z,65.40
2019-02-24T21:16:12.525Z,68.60
2019-02-24T21:19:00.463Z,70.40
2019-02-24T21:21:47.826Z,73.70
2019-02-24T21:24:35.012Z,75.50
2019-02-24T21:27:22.570Z,78.00
2019-02-24T21:30:12.048Z,80.90
2019-02-24T21:32:59.419Z,86.00
2019-02-24T21:35:47.268Z,85.60
2019-02-24T21:38:34.622Z,88.30
2019-02-24T21:41:21.971Z,91.10
2019-02-24T21:44:09.592Z,90.10
2019-02-24T21:46:57.196Z,91.30
2019-02-24T21:49:44.578Z,91.30
2019-02-24T21:52:32.502Z,92.30
2019-02-24T21:55:20.389Z,91.60
2019-02-24T21:58:08.055Z,93.90
2019-02-24T22:00:55.660Z,93.60
2019-02-24T22:03:43.430Z,94.60
2019-02-24T22:06:31.357Z,95.30
2019-02-24T22:09:19.070Z,97.30
2019-02-24T22:12:07.004Z,96.70
2019-02-24T22:14:55.064Z,96.60
2019-02-24T22:17:43.504Z,98.30
2019-02-24T22:20:30.886Z,98.60
2019-02-24T22:23:18.256Z,99.90
2019-02-24T22:26:05.513Z,99.90
2019-02-24T22:28:52.934Z,99.90
2019-02-24T22:31:40.477Z,99.90
2019-02-24T22:34:28.065Z,99.90
2019-02-24T22:37:15.865Z,99.90
2019-02-24T22:40:03.369Z,99.90
2019-02-24T22:42:50.737Z,99.90
2019-02-24T22:45:38.428Z,99.90
2019-02-24T22:48:26.205Z,99.90
2019-02-24T22:51:13.618Z,99.90
2019-02-24T22:54:01.265Z,99.90
2019-02-24T22:56:49.058Z,99.90
2019-02-24T22:59:36.438Z,99.90
2019-02-24T23:02:24.227Z,99.90
2019-02-24T23:05:13.061Z,99.90
2019-02-24T23:08:00.805Z,99.90
2019-02-24T23:10:48.562Z,99.90
2019-02-24T23:13:36.513Z,99.90
2019-02-24T23:16:24.194Z,99.90
2019-02-24T23:19:12.763Z,99.90
2019-02-24T23:21:59.943Z,99.90
2019-02-24T23:24:47.387Z,99.90
2019-02-24T23:27:35.102Z,99.90
2019-02-24T23:30:22.656Z,99.90
2019-02-24T23:33:10.003Z,99.90
2019-02-24T23:35:57.727Z,99.90
2019-02-24T23:38:45.441Z,99.90
2019-02-24T23:41:33.409Z,99.90
2019-02-24T23:44:21.231Z,99.90
2019-02-24T23:47:08.881Z,99.90
2019-02-24T23:49:56.483Z,99.90
2019-02-24T23:52:44.003Z,99.90
2019-02-24T23:55:31.708Z,99.90
2019-02-24T23:58:19.653Z,99.90
